createdAt,value
2018-08-10T00:00:14.763Z,1007.98
2018-08-10T00:01:14.791Z,1008.01
2018-08-10T00:02:14.816Z,1008.06
2018-08-10T00:03:14.840Z,1008.05
2018-08-10T00:04:14.868Z,1008.07
2018-08-10T00:05:14.894Z,1008.1
2018-08-10T00:06:14.921Z,1008.16
2018-08-10T00:07:14.950Z,1008.14
2018-08-10T00:08:14.971Z,1008.18
2018-08-10T00:09:14.998Z,1008.17
2018-08-10T00:10:15.025Z,1008.25
2018-08-10T00:11:15.052Z,1008.22
2018-08-10T00:12:15.074Z,1008.18
2018-08-10T00:13:15.102Z,1008.26
2018-08-10T00:14:15.126Z,1008.22
2018-08-10T00:15:15.153Z,1008.27
2018-08-10T00:16:15.179Z,1008.24
2018-08-10T00:17:15.205Z,1008.28
2018-08-10T00:18:15.229Z,1008.28
2018-08-10T00:19:15.256Z,1008.32
2018-08-10T00:20:15.282Z,1008.3
2018-08-10T00:21:15.308Z,1008.36
2018-08-10T00:22:15.334Z,1008.35
2018-08-10T00:23:15.364Z,1008.38
2018-08-10T00:24:15.386Z,1008.41
2018-08-10T00:25:15.410Z,1008.37
2018-08-10T00:27:15.463Z,1008.38
2018-08-10T00:28:15.488Z,1008.39
2018-08-10T00:29:15.513Z,1008.4
2018-08-10T00:30:15.540Z,1008.41
2018-08-10T00:31:15.567Z,1008.43
2018-08-10T00:32:15.592Z,1008.42
2018-08-10T00:33:15.618Z,1008.4
2018-08-10T00:34:15.643Z,1008.42
2018-08-10T00:35:15.670Z,1008.32
2018-08-10T00:36:15.695Z,1008.39
2018-08-10T00:37:15.722Z,1008.37
2018-08-10T00:38:15.747Z,1008.35
2018-08-10T00:39:15.772Z,1008.39
2018-08-10T00:40:15.798Z,1008.39
2018-08-10T00:41:15.824Z,1008.41
2018-08-10T00:43:15.876Z,1008.42
2018-08-10T00:44:15.900Z,1008.41
2018-08-10T00:45:15.927Z,1008.48
2018-08-10T00:46:15.953Z,1008.53
2018-08-10T00:47:15.978Z,1008.53
2018-08-10T00:48:16.003Z,1008.5
2018-08-10T00:49:16.030Z,1008.58
2018-08-10T00:50:16.056Z,1008.57
2018-08-10T00:51:16.082Z,1008.6
2018-08-10T00:52:16.108Z,1008.6
2018-08-10T00:53:16.132Z,1008.59
2018-08-10T00:54:16.160Z,1008.58
2018-08-10T00:55:16.224Z,1008.61
2018-08-10T00:56:16.210Z,1008.62
2018-08-10T00:57:16.236Z,1008.6
2018-08-10T00:59:16.288Z,1008.62
2018-08-10T01:00:16.313Z,1008.61
2018-08-10T01:01:16.341Z,1008.59
2018-08-10T01:02:16.364Z,1008.6
2018-08-10T01:03:16.391Z,1008.65
2018-08-10T01:04:16.415Z,1008.69
2018-08-10T01:05:16.441Z,1008.7
2018-08-10T01:06:16.467Z,1008.71
2018-08-10T01:07:16.492Z,1008.68
2018-08-10T01:08:16.519Z,1008.75
2018-08-10T01:09:16.544Z,1008.77
2018-08-10T01:10:16.569Z,1008.77
2018-08-10T01:11:16.596Z,1008.76
2018-08-10T01:12:16.621Z,1008.75
2018-08-10T01:13:16.734Z,1008.75
2018-08-10T01:15:16.696Z,1008.76
2018-08-10T01:16:16.724Z,1008.85
2018-08-10T01:17:16.748Z,1008.86
2018-08-10T01:18:16.774Z,1008.82
2018-08-10T01:19:16.902Z,1008.83
2018-08-10T01:20:16.824Z,1008.81
2018-08-10T01:21:16.851Z,1008.8
2018-08-10T01:22:16.877Z,1008.84
2018-08-10T01:23:16.901Z,1008.88
2018-08-10T01:24:16.930Z,1008.84
2018-08-10T01:25:16.954Z,1008.83
2018-08-10T01:26:16.980Z,1008.86
2018-08-10T01:27:17.005Z,1008.9
2018-08-10T01:28:17.056Z,1008.91
2018-08-10T01:30:17.082Z,1008.94
2018-08-10T01:31:17.112Z,1008.97
2018-08-10T01:32:17.134Z,1008.95
2018-08-10T01:33:17.158Z,1008.99
2018-08-10T01:34:17.187Z,1009.04
2018-08-10T01:35:17.208Z,1009.07
2018-08-10T01:36:17.234Z,1009.06
2018-08-10T01:37:17.270Z,1009.13
2018-08-10T01:38:17.286Z,1009.11
2018-08-10T01:39:17.310Z,1009.14
2018-08-10T01:40:17.337Z,1009.09
2018-08-10T01:41:17.362Z,1009.13
2018-08-10T01:42:17.388Z,1009.1
2018-08-10T01:43:17.416Z,1009.14
2018-08-10T01:44:17.437Z,1009.15
2018-08-10T01:45:17.464Z,1009.18
2018-08-10T01:46:17.491Z,1009.19
2018-08-10T01:47:17.515Z,1009.14
2018-08-10T01:48:17.540Z,1009.11
2018-08-10T01:49:17.564Z,1009.11
2018-08-10T01:50:17.591Z,1009.15
2018-08-10T01:51:17.617Z,1009.15
2018-08-10T01:52:17.643Z,1009.16
2018-08-10T01:53:17.667Z,1009.17
2018-08-10T01:54:17.696Z,1009.22
2018-08-10T01:55:17.719Z,1009.24
2018-08-10T01:56:17.745Z,1009.25
2018-08-10T01:57:17.770Z,1009.24
2018-08-10T01:58:17.795Z,1009.23
2018-08-10T01:59:17.821Z,1009.27
2018-08-10T02:00:17.856Z,1009.25
2018-08-10T02:02:17.897Z,1009.24
2018-08-10T02:03:17.927Z,1009.25
2018-08-10T02:04:17.947Z,1009.3
2018-08-10T02:05:17.974Z,1009.33
2018-08-10T02:06:17.998Z,1009.33
2018-08-10T02:07:18.024Z,1009.39
2018-08-10T02:08:18.051Z,1009.37
2018-08-10T02:09:18.073Z,1009.39
2018-08-10T02:10:18.099Z,1009.51
2018-08-10T02:11:18.124Z,1009.5
2018-08-10T02:12:18.150Z,1009.53
2018-08-10T02:13:18.175Z,1009.54
2018-08-10T02:14:18.202Z,1009.49
2018-08-10T02:15:18.226Z,1009.51
2018-08-10T02:16:18.250Z,1009.54
2018-08-10T02:18:18.302Z,1009.57
2018-08-10T02:19:18.329Z,1009.63
2018-08-10T02:20:18.353Z,1009.63
2018-08-10T02:21:18.378Z,1009.69
2018-08-10T02:22:18.407Z,1009.75
2018-08-10T02:23:18.429Z,1009.74
2018-08-10T02:24:18.457Z,1009.77
2018-08-10T02:25:18.480Z,1009.77
2018-08-10T02:26:18.504Z,1009.78
2018-08-10T02:27:18.529Z,1009.79
2018-08-10T02:28:18.556Z,1009.83
2018-08-10T02:29:18.581Z,1009.85
2018-08-10T02:30:18.604Z,1009.82
2018-08-10T02:31:18.635Z,1009.83
2018-08-10T02:32:18.656Z,1009.81
2018-08-10T02:34:18.706Z,1009.87
2018-08-10T02:35:18.732Z,1009.9
2018-08-10T02:36:18.757Z,1009.96
2018-08-10T02:37:18.782Z,1009.96
2018-08-10T02:38:18.811Z,1009.95
2018-08-10T02:39:18.833Z,1009.95
2018-08-10T02:40:18.859Z,1009.92
2018-08-10T02:41:18.884Z,1009.95
2018-08-10T02:42:18.912Z,1009.9
2018-08-10T02:43:18.934Z,1009.95
2018-08-10T02:44:18.959Z,1009.92
2018-08-10T02:45:18.984Z,1009.95
2018-08-10T02:46:19.010Z,1009.96
2018-08-10T02:47:19.036Z,1009.98
2018-08-10T02:48:19.070Z,1009.97
2018-08-10T02:50:19.114Z,1010
2018-08-10T02:51:19.136Z,1010.01
2018-08-10T02:52:19.160Z,1009.98
2018-08-10T02:53:19.185Z,1010
2018-08-10T02:54:19.215Z,1010.02
2018-08-10T02:55:19.235Z,1010.05
2018-08-10T02:56:19.261Z,1010
2018-08-10T02:57:19.286Z,1010.03
2018-08-10T02:58:19.312Z,1010.04
2018-08-10T02:59:19.336Z,1010
2018-08-10T03:00:19.362Z,1010
2018-08-10T03:01:19.386Z,1010.02
2018-08-10T03:02:19.415Z,1010.07
2018-08-10T03:03:19.438Z,1010
2018-08-10T03:05:19.489Z,1010.04
2018-08-10T03:06:19.513Z,1010.05
2018-08-10T03:07:19.539Z,1010.07
2018-08-10T03:08:19.565Z,1010.06
2018-08-10T03:09:19.591Z,1010.08
2018-08-10T03:10:19.615Z,1010.09
2018-08-10T03:11:19.640Z,1010.07
2018-08-10T03:12:19.665Z,1010.05
2018-08-10T03:13:19.690Z,1010.12
2018-08-10T03:14:19.717Z,1010.14
2018-08-10T03:15:19.742Z,1010.2
2018-08-10T03:16:19.765Z,1010.17
2018-08-10T03:17:19.791Z,1010.19
2018-08-10T03:18:19.817Z,1010.24
2018-08-10T03:19:19.843Z,1010.25
2018-08-10T03:20:19.868Z,1010.28
2018-08-10T03:21:19.891Z,1010.31
2018-08-10T03:22:20.023Z,1010.38
2018-08-10T03:23:19.941Z,1010.38
2018-08-10T03:24:19.967Z,1010.41
2018-08-10T03:25:19.992Z,1010.39
2018-08-10T03:26:20.018Z,1010.4
2018-08-10T03:27:20.043Z,1010.44
2018-08-10T03:28:20.068Z,1010.45
2018-08-10T03:29:20.092Z,1010.48
2018-08-10T03:30:20.119Z,1010.46
2018-08-10T03:31:20.144Z,1010.43
2018-08-10T03:32:20.169Z,1010.42
2018-08-10T03:33:20.193Z,1010.44
2018-08-10T03:34:20.218Z,1010.45
2018-08-10T03:35:20.243Z,1010.46
2018-08-10T03:37:20.294Z,1010.5
2018-08-10T03:38:20.318Z,1010.54
2018-08-10T03:39:20.344Z,1010.54
2018-08-10T03:40:20.418Z,1010.57
2018-08-10T03:41:20.394Z,1010.64
2018-08-10T03:42:20.422Z,1010.64
2018-08-10T03:43:20.445Z,1010.69
2018-08-10T03:44:20.475Z,1010.67
2018-08-10T03:45:20.495Z,1010.7
2018-08-10T03:46:20.521Z,1010.68
2018-08-10T03:47:20.544Z,1010.65
2018-08-10T03:48:20.571Z,1010.69
2018-08-10T03:49:20.596Z,1010.65
2018-08-10T03:50:20.620Z,1010.7
2018-08-10T03:51:20.646Z,1010.8
2018-08-10T03:53:20.697Z,1010.79
2018-08-10T03:54:20.721Z,1010.81
2018-08-10T03:55:20.748Z,1010.83
2018-08-10T03:56:20.829Z,1010.85
2018-08-10T03:57:20.797Z,1010.88
2018-08-10T03:58:20.825Z,1010.87
2018-08-10T03:59:20.848Z,1010.86
2018-08-10T04:00:20.872Z,1010.89
2018-08-10T04:01:20.898Z,1010.87
2018-08-10T04:02:20.923Z,1010.92
2018-08-10T04:03:20.948Z,1010.92
2018-08-10T04:04:20.976Z,1010.96
2018-08-10T04:05:20.998Z,1010.92
2018-08-10T04:06:21.023Z,1010.95
2018-08-10T04:07:21.049Z,1010.91
2018-08-10T04:09:21.103Z,1010.98
2018-08-10T04:10:21.125Z,1011.04
2018-08-10T04:11:21.150Z,1011.06
2018-08-10T04:12:21.174Z,1011.04
2018-08-10T04:13:21.200Z,1011
2018-08-10T04:14:21.233Z,1011.01
2018-08-10T04:15:21.250Z,1011.02
2018-08-10T04:16:21.274Z,1011.05
2018-08-10T04:17:21.301Z,1011.1
2018-08-10T04:18:21.326Z,1011.12
2018-08-10T04:19:21.351Z,1011.1
2018-08-10T04:20:21.376Z,1011.13
2018-08-10T04:21:21.401Z,1011.06
2018-08-10T04:22:21.433Z,1011.08
2018-08-10T04:23:21.451Z,1011.12
2018-08-10T04:25:21.504Z,1011.14
2018-08-10T04:26:21.529Z,1011.11
2018-08-10T04:27:21.551Z,1011.14
2018-08-10T04:28:21.579Z,1011.11
2018-08-10T04:29:21.604Z,1011.16
2018-08-10T04:30:21.629Z,1011.22
2018-08-10T04:31:21.654Z,1011.22
2018-08-10T04:32:21.679Z,1011.23
2018-08-10T04:33:21.705Z,1011.24
2018-08-10T04:34:21.729Z,1011.29
2018-08-10T04:35:21.755Z,1011.3
2018-08-10T04:36:21.781Z,1011.31
2018-08-10T04:37:21.806Z,1011.37
2018-08-10T04:38:21.951Z,1011.36
2018-08-10T04:40:21.882Z,1011.35
2018-08-10T04:41:21.907Z,1011.39
2018-08-10T04:42:21.933Z,1011.43
2018-08-10T04:43:21.960Z,1011.46
2018-08-10T04:44:21.984Z,1011.46
2018-08-10T04:45:22.009Z,1011.5
2018-08-10T04:46:22.033Z,1011.5
2018-08-10T04:47:22.059Z,1011.51
2018-08-10T04:48:22.083Z,1011.52
2018-08-10T04:49:22.110Z,1011.54
2018-08-10T04:50:22.135Z,1011.53
2018-08-10T04:51:22.160Z,1011.55
2018-08-10T04:52:22.185Z,1011.6
2018-08-10T04:53:22.209Z,1011.6
2018-08-10T04:54:22.236Z,1011.63
2018-08-10T04:55:22.304Z,1011.66
2018-08-10T04:56:22.285Z,1011.64
2018-08-10T04:57:22.311Z,1011.66
2018-08-10T04:58:22.337Z,1011.7
2018-08-10T04:59:22.362Z,1011.69
2018-08-10T05:00:22.387Z,1011.72
2018-08-10T05:01:22.412Z,1011.73
2018-08-10T05:02:22.437Z,1011.78
2018-08-10T05:03:22.461Z,1011.8
2018-08-10T05:04:22.488Z,1011.86
2018-08-10T05:05:22.513Z,1011.87
2018-08-10T05:06:22.539Z,1011.86
2018-08-10T05:07:22.563Z,1011.85
2018-08-10T05:08:22.589Z,1011.87
2018-08-10T05:09:22.614Z,1011.82
2018-08-10T05:10:22.639Z,1011.85
2018-08-10T05:12:22.689Z,1011.88
2018-08-10T05:13:22.715Z,1011.91
2018-08-10T05:14:22.740Z,1011.9
2018-08-10T05:15:22.765Z,1011.89
2018-08-10T05:16:22.789Z,1011.9
2018-08-10T05:17:22.816Z,1011.89
2018-08-10T05:18:22.851Z,1011.91
2018-08-10T05:19:22.865Z,1011.97
2018-08-10T05:20:22.890Z,1011.98
2018-08-10T05:21:22.920Z,1011.95
2018-08-10T05:22:22.941Z,1012.06
2018-08-10T05:23:22.965Z,1012.07
2018-08-10T05:24:22.991Z,1012
2018-08-10T05:25:23.016Z,1012
2018-08-10T05:26:23.043Z,1011.99
2018-08-10T05:28:23.093Z,1012.01
2018-08-10T05:29:23.117Z,1012.1
2018-08-10T05:30:23.143Z,1012.09
2018-08-10T05:31:23.167Z,1012.14
2018-08-10T05:32:23.192Z,1012.19
2018-08-10T05:33:23.217Z,1012.24
2018-08-10T05:34:23.243Z,1012.3
2018-08-10T05:35:23.272Z,1012.32
2018-08-10T05:36:23.293Z,1012.34
2018-08-10T05:37:23.319Z,1012.33
2018-08-10T05:38:23.345Z,1012.35
2018-08-10T05:39:23.373Z,1012.41
2018-08-10T05:40:23.400Z,1012.43
2018-08-10T05:41:23.420Z,1012.5
2018-08-10T05:42:23.446Z,1012.48
2018-08-10T05:44:23.495Z,1012.63
2018-08-10T05:45:23.520Z,1012.65
2018-08-10T05:46:23.581Z,1012.64
2018-08-10T05:47:23.571Z,1012.68
2018-08-10T05:48:23.597Z,1012.77
2018-08-10T05:49:23.621Z,1012.74
2018-08-10T05:50:23.649Z,1012.8
2018-08-10T05:51:23.670Z,1012.79
2018-08-10T05:52:23.730Z,1012.8
2018-08-10T05:53:23.724Z,1012.82
2018-08-10T05:54:23.745Z,1012.86
2018-08-10T05:55:23.773Z,1012.89
2018-08-10T05:56:23.797Z,1012.99
2018-08-10T05:57:23.898Z,1012.98
2018-08-10T05:58:23.847Z,1013
2018-08-10T06:00:23.898Z,1013.01
2018-08-10T06:01:23.925Z,1012.96
2018-08-10T06:02:23.948Z,1012.9
2018-08-10T06:03:24.080Z,1012.98
2018-08-10T06:04:23.999Z,1012.93
2018-08-10T06:05:24.023Z,1013.08
2018-08-10T06:06:24.049Z,1013.03
2018-08-10T06:07:24.073Z,1013.12
2018-08-10T06:08:24.099Z,1013.15
2018-08-10T06:09:24.124Z,1013.14
2018-08-10T06:10:24.149Z,1013.24
2018-08-10T06:11:24.174Z,1013.36
2018-08-10T06:12:24.200Z,1013.21
2018-08-10T06:13:24.229Z,1013.2
2018-08-10T06:15:24.315Z,1013.29
2018-08-10T06:16:24.301Z,1013.44
2018-08-10T06:17:24.326Z,1013.56
2018-08-10T06:18:24.353Z,1013.4
2018-08-10T06:19:24.428Z,1013.46
2018-08-10T06:20:24.404Z,1013.55
2018-08-10T06:21:24.429Z,1013.57
2018-08-10T06:22:24.456Z,1013.58
2018-08-10T06:23:24.483Z,1013.49
2018-08-10T06:24:24.506Z,1013.57
2018-08-10T06:25:24.536Z,1013.61
2018-08-10T06:26:24.556Z,1013.65
2018-08-10T06:27:24.581Z,1013.66
2018-08-10T06:28:24.608Z,1013.67
2018-08-10T06:29:24.639Z,1013.64
2018-08-10T06:30:24.667Z,1013.7
2018-08-10T06:31:24.682Z,1013.74
2018-08-10T06:32:24.710Z,1013.73
2018-08-10T06:33:24.734Z,1013.78
2018-08-10T06:34:24.761Z,1013.77
2018-08-10T06:35:24.792Z,1013.86
2018-08-10T06:36:24.810Z,1013.92
2018-08-10T06:37:24.837Z,1013.87
2018-08-10T06:38:24.861Z,1013.92
2018-08-10T06:39:24.888Z,1013.91
2018-08-10T06:40:24.917Z,1013.92
2018-08-10T06:41:24.938Z,1013.95
2018-08-10T06:42:24.963Z,1013.99
2018-08-10T06:43:24.987Z,1014
2018-08-10T06:44:25.014Z,1014.11
2018-08-10T06:45:25.040Z,1014.06
2018-08-10T06:47:25.090Z,1014.16
2018-08-10T06:48:25.114Z,1014.22
2018-08-10T06:49:25.139Z,1014.14
2018-08-10T06:50:25.168Z,1014.2
2018-08-10T06:51:25.192Z,1014.3
2018-08-10T06:52:25.218Z,1014.27
2018-08-10T06:53:25.240Z,1014.21
2018-08-10T06:54:25.265Z,1014.2
2018-08-10T06:55:25.291Z,1014.27
2018-08-10T06:56:25.316Z,1014.35
2018-08-10T06:57:25.341Z,1014.29
2018-08-10T06:58:25.365Z,1014.31
2018-08-10T06:59:25.409Z,1014.45
2018-08-10T07:00:25.436Z,1014.41
2018-08-10T07:01:25.471Z,1014.49
2018-08-10T07:03:25.496Z,1014.47
2018-08-10T07:04:25.516Z,1014.48
2018-08-10T07:05:25.541Z,1014.49
2018-08-10T07:06:25.566Z,1014.52
2018-08-10T07:07:25.607Z,1014.65
2018-08-10T07:08:25.616Z,1014.53
2018-08-10T07:09:25.641Z,1014.55
2018-08-10T07:10:25.666Z,1014.47
2018-08-10T07:11:25.691Z,1014.46
2018-08-10T07:12:25.715Z,1014.51
2018-08-10T07:13:25.885Z,1014.54
2018-08-10T07:14:25.771Z,1014.51
2018-08-10T07:15:25.792Z,1014.44
2018-08-10T07:16:25.816Z,1014.41
2018-08-10T07:17:25.841Z,1014.34
2018-08-10T07:19:25.890Z,1014.41
2018-08-10T07:20:25.916Z,1014.46
2018-08-10T07:21:25.944Z,1014.47
2018-08-10T07:22:25.966Z,1014.55
2018-08-10T07:23:25.991Z,1014.55
2018-08-10T07:24:26.019Z,1014.59
2018-08-10T07:25:26.042Z,1014.5
2018-08-10T07:26:26.064Z,1014.61
2018-08-10T07:27:26.095Z,1014.75
2018-08-10T07:28:26.117Z,1014.78
2018-08-10T07:29:26.141Z,1014.63
2018-08-10T07:30:26.164Z,1014.71
2018-08-10T07:31:26.192Z,1014.75
2018-08-10T07:32:26.217Z,1014.8
2018-08-10T07:33:26.242Z,1014.84
2018-08-10T07:35:26.292Z,1014.87
2018-08-10T07:36:26.327Z,1015.04
2018-08-10T07:37:26.341Z,1014.94
2018-08-10T07:38:26.386Z,1014.93
2018-08-10T07:39:26.395Z,1014.9
2018-08-10T07:40:26.419Z,1014.87
2018-08-10T07:41:26.443Z,1014.81
2018-08-10T07:42:26.469Z,1014.82
2018-08-10T07:43:26.494Z,1014.89
2018-08-10T07:44:26.518Z,1014.91
2018-08-10T07:45:26.544Z,1014.95
2018-08-10T07:46:26.617Z,1014.99
2018-08-10T07:47:26.596Z,1015.07
2018-08-10T07:48:26.621Z,1015.03
2018-08-10T07:50:26.672Z,1015.04
2018-08-10T07:51:26.698Z,1015.09
2018-08-10T07:52:26.723Z,1015.19
2018-08-10T07:53:26.753Z,1015.03
2018-08-10T07:54:26.775Z,1014.97
2018-08-10T07:55:26.799Z,1015.05
2018-08-10T07:56:26.824Z,1015.2
2018-08-10T07:57:26.849Z,1015.32
2018-08-10T07:58:26.876Z,1015.29
2018-08-10T07:59:26.900Z,1015.28
2018-08-10T08:00:26.931Z,1015.27
2018-08-10T08:01:26.952Z,1015.26
2018-08-10T08:02:26.977Z,1015.31
2018-08-10T08:03:27.002Z,1015.34
2018-08-10T08:04:27.028Z,1015.42
2018-08-10T08:05:27.052Z,1015.37
2018-08-10T08:06:27.080Z,1015.58
2018-08-10T08:07:27.104Z,1015.55
2018-08-10T08:08:27.129Z,1015.47
2018-08-10T08:09:27.159Z,1015.51
2018-08-10T08:10:27.227Z,1015.57
2018-08-10T08:11:27.204Z,1015.57
2018-08-10T08:12:27.230Z,1015.55
2018-08-10T08:13:27.257Z,1015.61
2018-08-10T08:14:27.280Z,1015.67
2018-08-10T08:15:27.305Z,1015.67
2018-08-10T08:16:27.331Z,1015.76
2018-08-10T08:17:27.356Z,1015.73
2018-08-10T08:18:27.381Z,1015.73
2018-08-10T08:19:27.466Z,1015.74
2018-08-10T08:20:27.433Z,1015.71
2018-08-10T08:22:27.482Z,1015.72
2018-08-10T08:23:27.510Z,1015.72
2018-08-10T08:24:27.535Z,1015.74
2018-08-10T08:25:27.557Z,1015.85
2018-08-10T08:26:27.583Z,1015.82
2018-08-10T08:27:27.613Z,1015.9
2018-08-10T08:28:27.638Z,1015.92
2018-08-10T08:29:27.660Z,1015.98
2018-08-10T08:30:27.684Z,1015.89
2018-08-10T08:31:27.712Z,1016.05
2018-08-10T08:32:27.736Z,1016.08
2018-08-10T08:33:27.761Z,1016.09
2018-08-10T08:34:27.788Z,1016.19
2018-08-10T08:35:27.813Z,1016.08
2018-08-10T08:36:27.839Z,1016.12
2018-08-10T08:38:28.033Z,1016.05
2018-08-10T08:39:27.916Z,1016.08
2018-08-10T08:40:27.941Z,1016.15
2018-08-10T08:41:27.968Z,1016.21
2018-08-10T08:42:27.992Z,1016.25
2018-08-10T08:43:28.019Z,1016.26
2018-08-10T08:44:28.046Z,1016.15
2018-08-10T08:45:28.203Z,1016.2
2018-08-10T08:46:28.220Z,1016.13
2018-08-10T08:47:28.123Z,1016.26
2018-08-10T08:48:28.148Z,1016.21
2018-08-10T08:49:28.175Z,1016.28
2018-08-10T08:50:28.201Z,1016.28
2018-08-10T08:51:28.227Z,1016.35
2018-08-10T08:52:28.254Z,1016.34
2018-08-10T08:54:28.306Z,1016.51
2018-08-10T08:55:28.332Z,1016.43
2018-08-10T08:56:28.359Z,1016.4
2018-08-10T08:57:28.383Z,1016.44
2018-08-10T08:58:28.411Z,1016.4
2018-08-10T08:59:28.440Z,1016.36
2018-08-10T09:00:28.466Z,1016.4
2018-08-10T09:01:28.493Z,1016.41
2018-08-10T09:02:28.521Z,1016.38
2018-08-10T09:03:28.549Z,1016.41
2018-08-10T09:04:28.570Z,1016.4
2018-08-10T09:05:28.597Z,1016.36
2018-08-10T09:06:28.623Z,1016.39
2018-08-10T09:07:28.816Z,1016.44
2018-08-10T09:08:28.676Z,1016.33
2018-08-10T09:10:28.730Z,1016.31
2018-08-10T09:11:28.757Z,1016.36
2018-08-10T09:12:28.786Z,1016.34
2018-08-10T09:13:28.809Z,1016.34
2018-08-10T09:14:29.009Z,1016.4
2018-08-10T09:15:28.861Z,1016.41
2018-08-10T09:16:28.889Z,1016.41
2018-08-10T09:17:29.025Z,1016.42
2018-08-10T09:18:28.943Z,1016.38
2018-08-10T09:19:28.967Z,1016.35
2018-08-10T09:20:28.995Z,1016.36
2018-08-10T09:21:29.021Z,1016.38
2018-08-10T09:22:29.048Z,1016.38
2018-08-10T09:23:29.074Z,1016.4
2018-08-10T09:25:29.134Z,1016.4
2018-08-10T09:26:29.153Z,1016.43
2018-08-10T09:27:29.181Z,1016.35
2018-08-10T09:28:29.207Z,1016.4
2018-08-10T09:29:29.242Z,1016.44
2018-08-10T09:30:29.259Z,1016.44
2018-08-10T09:31:29.285Z,1016.48
2018-08-10T09:32:29.314Z,1016.47
2018-08-10T09:33:29.338Z,1016.4
2018-08-10T09:34:29.374Z,1016.46
2018-08-10T09:35:29.389Z,1016.45
2018-08-10T09:36:29.418Z,1016.49
2018-08-10T09:37:29.442Z,1016.5
2018-08-10T09:38:29.522Z,1016.47
2018-08-10T09:39:29.495Z,1016.44
2018-08-10T09:40:29.528Z,1016.43
2018-08-10T09:41:29.547Z,1016.4
2018-08-10T09:42:29.573Z,1016.4
2018-08-10T09:43:29.600Z,1016.41
2018-08-10T09:44:29.630Z,1016.46
2018-08-10T09:45:29.836Z,1016.41
2018-08-10T09:46:29.678Z,1016.37
2018-08-10T09:47:29.705Z,1016.34
2018-08-10T09:48:29.730Z,1016.35
2018-08-10T09:49:29.757Z,1016.41
2018-08-10T09:50:29.784Z,1016.42
2018-08-10T09:51:29.809Z,1016.44
2018-08-10T09:52:29.836Z,1016.44
2018-08-10T09:53:29.862Z,1016.48
2018-08-10T09:54:29.890Z,1016.47
2018-08-10T09:55:29.915Z,1016.5
2018-08-10T09:57:29.969Z,1016.59
2018-08-10T09:58:29.995Z,1016.59
2018-08-10T09:59:30.022Z,1016.48
2018-08-10T10:00:30.061Z,1016.55
2018-08-10T10:01:30.078Z,1016.58
2018-08-10T10:02:30.102Z,1016.56
2018-08-10T10:03:30.129Z,1016.52
2018-08-10T10:04:30.156Z,1016.53
2018-08-10T10:05:30.183Z,1016.58
2018-08-10T10:06:30.209Z,1016.59
2018-08-10T10:07:30.236Z,1016.59
2018-08-10T10:08:30.264Z,1016.59
2018-08-10T10:09:30.291Z,1016.59
2018-08-10T10:10:30.317Z,1016.58
2018-08-10T10:11:30.345Z,1016.6
2018-08-10T10:13:30.402Z,1016.52
2018-08-10T10:14:30.425Z,1016.56
2018-08-10T10:15:30.451Z,1016.53
2018-08-10T10:16:30.478Z,1016.52
2018-08-10T10:17:30.550Z,1016.6
2018-08-10T10:18:30.533Z,1016.65
2018-08-10T10:19:30.560Z,1016.59
2018-08-10T10:20:30.588Z,1016.7
2018-08-10T10:21:30.614Z,1016.7
2018-08-10T10:22:30.640Z,1016.67
2018-08-10T10:23:30.668Z,1016.68
2018-08-10T10:24:30.696Z,1016.75
2018-08-10T10:25:30.742Z,1016.76
2018-08-10T10:26:30.748Z,1016.83
2018-08-10T10:27:30.777Z,1016.75
2018-08-10T10:29:30.830Z,1016.72
2018-08-10T10:30:30.860Z,1016.7
2018-08-10T10:31:30.885Z,1016.68
2018-08-10T10:32:30.943Z,1016.76
2018-08-10T10:33:30.940Z,1016.7
2018-08-10T10:34:30.967Z,1016.74
2018-08-10T10:35:30.994Z,1016.68
2018-08-10T10:36:31.020Z,1016.7
2018-08-10T10:37:31.048Z,1016.68
2018-08-10T10:38:31.076Z,1016.73
2018-08-10T10:39:31.103Z,1016.7
2018-08-10T10:40:31.129Z,1016.77
2018-08-10T10:41:31.194Z,1016.74
2018-08-10T10:42:31.185Z,1016.79
2018-08-10T10:43:31.211Z,1016.82
2018-08-10T10:45:31.265Z,1016.81
2018-08-10T10:46:31.293Z,1016.88
2018-08-10T10:47:31.320Z,1016.86
2018-08-10T10:48:31.351Z,1016.73
2018-08-10T10:49:31.375Z,1016.72
2018-08-10T10:50:31.401Z,1016.77
2018-08-10T10:51:31.427Z,1016.75
2018-08-10T10:52:31.456Z,1016.77
2018-08-10T10:53:31.485Z,1016.69
2018-08-10T10:54:31.509Z,1016.75
2018-08-10T10:55:31.561Z,1016.82
2018-08-10T10:56:31.606Z,1016.78
2018-08-10T10:57:31.595Z,1016.79
2018-08-10T10:58:31.619Z,1016.77
2018-08-10T11:00:31.675Z,1016.87
2018-08-10T11:01:31.699Z,1016.86
2018-08-10T11:02:31.726Z,1016.85
2018-08-10T11:03:31.755Z,1016.85
2018-08-10T11:04:31.780Z,1016.86
2018-08-10T11:05:31.805Z,1016.91
2018-08-10T11:06:31.833Z,1016.94
2018-08-10T11:07:31.861Z,1016.92
2018-08-10T11:08:31.886Z,1017.02
2018-08-10T11:09:31.915Z,1016.99
2018-08-10T11:10:31.942Z,1016.97
2018-08-10T11:11:31.971Z,1016.93
2018-08-10T11:12:31.995Z,1016.94
2018-08-10T11:13:32.023Z,1016.9
2018-08-10T11:14:32.050Z,1016.92
2018-08-10T11:15:32.079Z,1016.92
2018-08-10T11:16:32.103Z,1016.96
2018-08-10T11:17:32.130Z,1016.99
2018-08-10T11:18:32.158Z,1017.03
2018-08-10T11:19:32.184Z,1016.98
2018-08-10T11:20:32.211Z,1016.95
2018-08-10T11:21:32.239Z,1016.99
2018-08-10T11:22:32.266Z,1017.01
2018-08-10T11:23:32.292Z,1017.02
2018-08-10T11:24:32.321Z,1017.02
2018-08-10T11:25:32.422Z,1017.02
2018-08-10T11:26:32.376Z,1017.08
2018-08-10T11:27:32.400Z,1017.04
2018-08-10T11:28:32.428Z,1017.08
2018-08-10T11:29:32.456Z,1017.06
2018-08-10T11:30:32.482Z,1017.02
2018-08-10T11:32:32.537Z,1016.97
2018-08-10T11:33:32.563Z,1016.92
2018-08-10T11:34:32.591Z,1016.91
2018-08-10T11:35:32.619Z,1017.02
2018-08-10T11:36:32.647Z,1016.99
2018-08-10T11:37:32.676Z,1017
2018-08-10T11:38:32.701Z,1017.03
2018-08-10T11:39:32.728Z,1017
2018-08-10T11:40:32.757Z,1017.08
2018-08-10T11:41:32.796Z,1017.11
2018-08-10T11:42:32.814Z,1017.06
2018-08-10T11:43:32.839Z,1017.08
2018-08-10T11:44:32.867Z,1017.04
2018-08-10T11:45:32.895Z,1017.04
2018-08-10T11:46:32.923Z,1017.05
2018-08-10T11:48:32.979Z,1017.1
2018-08-10T11:49:33.009Z,1017.1
2018-08-10T11:50:33.033Z,1017.18
2018-08-10T11:51:33.063Z,1017.18
2018-08-10T11:52:33.119Z,1017.21
2018-08-10T11:53:33.165Z,1017.22
2018-08-10T11:54:33.147Z,1017.2
2018-08-10T11:55:33.174Z,1017.2
2018-08-10T11:56:33.202Z,1017.27
2018-08-10T11:57:33.333Z,1017.2
2018-08-10T11:58:33.258Z,1017.2
2018-08-10T11:59:33.287Z,1017.24
2018-08-10T12:00:33.314Z,1017.18
2018-08-10T12:01:33.343Z,1017.14
2018-08-10T12:02:33.377Z,1017.23
2018-08-10T12:04:33.426Z,1017.24
2018-08-10T12:05:33.454Z,1017.26
2018-08-10T12:06:33.483Z,1017.24
2018-08-10T12:07:33.510Z,1017.23
2018-08-10T12:08:33.538Z,1017.25
2018-08-10T12:09:33.565Z,1017.22
2018-08-10T12:10:33.594Z,1017.34
2018-08-10T12:11:33.620Z,1017.25
2018-08-10T12:12:33.742Z,1017.24
2018-08-10T12:13:33.677Z,1017.17
2018-08-10T12:14:33.704Z,1017.38
2018-08-10T12:15:33.734Z,1017.26
2018-08-10T12:16:33.761Z,1017.26
2018-08-10T12:17:33.788Z,1017.21
2018-08-10T12:18:33.816Z,1017.23
2018-08-10T12:20:33.873Z,1017.17
2018-08-10T12:21:33.900Z,1017.15
2018-08-10T12:22:33.927Z,1017.19
2018-08-10T12:23:33.955Z,1017.15
2018-08-10T12:24:34.020Z,1017.14
2018-08-10T12:25:34.011Z,1017.1
2018-08-10T12:26:34.037Z,1017.06
2018-08-10T12:27:34.065Z,1017.07
2018-08-10T12:28:34.095Z,1017.09
2018-08-10T12:29:34.121Z,1017.16
2018-08-10T12:30:34.149Z,1017.15
2018-08-10T12:31:34.177Z,1017.15
2018-08-10T12:32:34.205Z,1017.23
2018-08-10T12:33:34.232Z,1017.27
2018-08-10T12:35:34.288Z,1017.23
2018-08-10T12:36:34.315Z,1017.22
2018-08-10T12:37:34.343Z,1017.22
2018-08-10T12:38:34.371Z,1017.24
2018-08-10T12:39:34.397Z,1017.24
2018-08-10T12:40:34.426Z,1017.29
2018-08-10T12:41:34.452Z,1017.28
2018-08-10T12:42:34.482Z,1017.32
2018-08-10T12:43:34.508Z,1017.28
2018-08-10T12:44:34.535Z,1017.21
2018-08-10T12:45:34.563Z,1017.19
2018-08-10T12:46:34.646Z,1017.16
2018-08-10T12:47:34.618Z,1017.18
2018-08-10T12:48:34.644Z,1017.29
2018-08-10T12:49:34.672Z,1017.23